createdAt,value
2018-09-08T00:00:10.238Z,0
2018-09-08T00:01:26.247Z,0
2018-09-08T00:02:42.155Z,0
2018-09-08T00:03:58.087Z,0
2018-09-08T00:05:14.157Z,0
2018-09-08T00:06:30.323Z,0
2018-09-08T00:07:46.223Z,0
2018-09-08T00:09:02.212Z,0
2018-09-08T00:10:18.156Z,0
2018-09-08T00:11:34.133Z,0
2018-09-08T00:12:50.049Z,0
2018-09-08T00:14:06.135Z,0
2018-09-08T00:15:22.133Z,0
2018-09-08T00:16:56.036Z,0
2018-09-08T00:18:11.995Z,0
2018-09-08T00:19:27.917Z,0
2018-09-08T00:20:43.905Z,0
2018-09-08T00:21:59.886Z,0
2018-09-08T00:23:15.852Z,0
2018-09-08T00:24:31.832Z,0
2018-09-08T00:25:47.947Z,0
2018-09-08T00:27:03.950Z,0
2018-09-08T00:28:37.810Z,0
2018-09-08T00:29:53.826Z,0
2018-09-08T00:31:09.744Z,0
2018-09-08T00:32:25.752Z,0
2018-09-08T00:33:59.627Z,0
2018-09-08T00:35:15.567Z,0
2018-09-08T00:36:31.447Z,0
2018-09-08T00:37:47.408Z,0
2018-09-08T00:39:22.213Z,0
2018-09-08T00:40:38.117Z,0
2018-09-08T00:41:54.017Z,0
2018-09-08T00:43:10.000Z,0
2018-09-08T00:44:43.872Z,0
2018-09-08T00:45:59.933Z,0
2018-09-08T00:47:15.835Z,0
2018-09-08T00:48:31.815Z,0
2018-09-08T00:49:47.795Z,0
2018-09-08T00:51:03.746Z,0
2018-09-08T00:52:19.709Z,0
2018-09-08T00:53:35.915Z,0
2018-09-08T00:54:51.839Z,0
2018-09-08T00:56:07.770Z,0
2018-09-08T00:57:42.805Z,0
2018-09-08T00:58:58.886Z,0
2018-09-08T01:00:15.020Z,0
2018-09-08T01:01:31.104Z,0
2018-09-08T01:02:47.089Z,0
2018-09-08T01:04:03.009Z,0
2018-09-08T01:05:18.971Z,0
2018-09-08T01:06:35.026Z,0
2018-09-08T01:07:51.099Z,0
2018-09-08T01:09:07.064Z,0
2018-09-08T01:10:23.126Z,0
2018-09-08T01:11:39.202Z,0
2018-09-08T01:12:55.288Z,0
2018-09-08T01:14:29.141Z,0
2018-09-08T01:16:02.985Z,0
2018-09-08T01:17:37.949Z,0
2018-09-08T01:18:54.159Z,0
2018-09-08T01:20:10.116Z,0
2018-09-08T01:21:26.096Z,0
2018-09-08T01:22:59.965Z,0
2018-09-08T01:24:15.997Z,0
2018-09-08T01:25:32.125Z,0
2018-09-08T01:26:48.125Z,0
2018-09-08T01:28:04.127Z,0
2018-09-08T01:29:20.164Z,0
2018-09-08T01:30:36.215Z,0
2018-09-08T01:31:52.194Z,0
2018-09-08T01:33:08.213Z,0
2018-09-08T01:34:24.266Z,0
2018-09-08T01:35:40.224Z,0
2018-09-08T01:36:56.141Z,0
2018-09-08T01:38:12.124Z,0
2018-09-08T01:39:28.217Z,0
2018-09-08T01:40:44.155Z,0
2018-09-08T01:42:00.134Z,0
2018-09-08T01:43:16.073Z,0
2018-09-08T01:44:32.116Z,0
2018-09-08T01:45:48.022Z,0
2018-09-08T01:47:22.854Z,0
2018-09-08T01:48:38.787Z,0
2018-09-08T01:49:54.892Z,0
2018-09-08T01:51:10.942Z,0
2018-09-08T01:52:26.876Z,0
2018-09-08T01:53:42.852Z,0
2018-09-08T01:54:58.942Z,0
2018-09-08T01:56:15.045Z,0
2018-09-08T01:57:31.043Z,0
2018-09-08T01:58:46.934Z,0
2018-09-08T02:00:03.015Z,0
2018-09-08T02:01:18.987Z,0
2018-09-08T02:02:35.096Z,0
2018-09-08T02:04:09.002Z,0
2018-09-08T02:05:25.057Z,0
2018-09-08T02:06:41.084Z,0
2018-09-08T02:07:57.123Z,0
2018-09-08T02:09:13.140Z,0
2018-09-08T02:10:29.099Z,0
2018-09-08T02:11:45.034Z,0
2018-09-08T02:13:18.850Z,0
2018-09-08T02:14:34.790Z,0
2018-09-08T02:15:50.876Z,0
2018-09-08T02:17:06.831Z,0
2018-09-08T02:18:22.762Z,0
2018-09-08T02:19:38.733Z,0
2018-09-08T02:20:54.825Z,0
2018-09-08T02:22:10.728Z,0
2018-09-08T02:23:26.752Z,0
2018-09-08T02:24:43.703Z,0
2018-09-08T02:25:59.811Z,0
2018-09-08T02:27:15.731Z,0
2018-09-08T02:28:31.731Z,0
2018-09-08T02:29:47.704Z,0
2018-09-08T02:31:03.678Z,0
2018-09-08T02:32:19.630Z,0
2018-09-08T02:33:35.561Z,0
2018-09-08T02:34:51.571Z,0
2018-09-08T02:36:07.758Z,0
2018-09-08T02:37:23.661Z,0
2018-09-08T02:38:39.593Z,0
2018-09-08T02:40:13.399Z,0
2018-09-08T02:41:29.416Z,0
2018-09-08T02:42:45.325Z,0
2018-09-08T02:44:01.336Z,0
2018-09-08T02:45:17.372Z,0
2018-09-08T02:46:33.377Z,0
2018-09-08T02:47:49.567Z,0
2018-09-08T02:49:05.583Z,0
2018-09-08T02:50:21.511Z,0
2018-09-08T02:51:37.534Z,0
2018-09-08T02:52:53.590Z,0
2018-09-08T02:54:09.592Z,0
2018-09-08T02:55:25.487Z,0
2018-09-08T02:56:41.466Z,0
2018-09-08T02:57:57.484Z,0
2018-09-08T02:59:31.426Z,0
2018-09-08T03:01:05.276Z,0
2018-09-08T03:03:55.336Z,0
2018-09-08T03:05:11.326Z,0
2018-09-08T03:06:27.247Z,0
2018-09-08T03:07:43.245Z,0
2018-09-08T03:08:59.516Z,0
2018-09-08T03:10:15.485Z,0
2018-09-08T03:11:31.433Z,0
2018-09-08T03:12:47.446Z,0
2018-09-08T03:14:03.376Z,0
2018-09-08T03:15:38.395Z,0
2018-09-08T03:16:54.478Z,0
2018-09-08T03:18:10.619Z,0
2018-09-08T03:19:26.558Z,0
2018-09-08T03:21:00.395Z,0
2018-09-08T03:22:16.313Z,0
2018-09-08T03:23:32.379Z,0
2018-09-08T03:24:48.367Z,0
2018-09-08T03:26:04.297Z,0
2018-09-08T03:27:20.260Z,0
2018-09-08T03:28:36.314Z,0
2018-09-08T03:29:52.371Z,0
2018-09-08T03:31:08.269Z,0
2018-09-08T03:32:24.191Z,0
2018-09-08T03:33:40.150Z,0
2018-09-08T03:34:56.072Z,0
2018-09-08T03:36:12.049Z,0
2018-09-08T03:37:28.002Z,0
2018-09-08T03:38:44.162Z,0
2018-09-08T03:40:00.054Z,0
2018-09-08T03:41:16.021Z,0
2018-09-08T03:42:31.991Z,0
2018-09-08T03:43:48.094Z,0
2018-09-08T03:45:04.023Z,0
2018-09-08T03:46:20.002Z,0
2018-09-08T03:47:35.911Z,0
2018-09-08T03:48:51.859Z,0
2018-09-08T03:50:07.809Z,0
2018-09-08T03:51:41.633Z,0
2018-09-08T03:52:57.760Z,0
2018-09-08T03:54:31.626Z,0
2018-09-08T03:55:47.665Z,0
2018-09-08T03:57:03.674Z,0
2018-09-08T03:58:19.657Z,0
2018-09-08T03:59:35.626Z,0
2018-09-08T04:00:51.615Z,0
2018-09-08T04:02:07.652Z,0
2018-09-08T04:03:23.685Z,0
2018-09-08T04:04:39.668Z,0
2018-09-08T04:05:55.704Z,0
2018-09-08T04:07:11.688Z,0
2018-09-08T04:08:27.613Z,0
2018-09-08T04:09:43.574Z,0
2018-09-08T04:10:59.645Z,0
2018-09-08T04:12:15.746Z,0
2018-09-08T04:13:31.784Z,0
2018-09-08T04:14:47.975Z,0
2018-09-08T04:16:03.906Z,0
2018-09-08T04:17:19.869Z,0
2018-09-08T04:18:35.861Z,0
2018-09-08T04:19:51.923Z,0
2018-09-08T04:21:07.830Z,0
2018-09-08T04:22:23.841Z,0
2018-09-08T04:23:39.790Z,0
2018-09-08T04:24:55.902Z,1
2018-09-08T04:26:11.853Z,0
2018-09-08T04:27:27.790Z,1
2018-09-08T04:28:43.872Z,0
2018-09-08T04:29:59.825Z,1
2018-09-08T04:31:15.820Z,1
2018-09-08T04:32:31.900Z,1
2018-09-08T04:33:47.931Z,2
2018-09-08T04:35:03.953Z,2
2018-09-08T04:36:19.934Z,2
2018-09-08T04:37:35.836Z,3
2018-09-08T04:38:51.759Z,4
2018-09-08T04:40:07.779Z,5
2018-09-08T04:41:23.740Z,6
2018-09-08T04:42:39.697Z,7
2018-09-08T04:43:55.757Z,9
2018-09-08T04:45:11.674Z,11
2018-09-08T04:46:27.676Z,13
2018-09-08T04:47:43.620Z,15
2018-09-08T04:48:59.719Z,17
2018-09-08T04:50:15.783Z,19
2018-09-08T04:51:31.683Z,22
2018-09-08T04:52:47.650Z,24
2018-09-08T04:54:03.774Z,27
2018-09-08T04:55:19.807Z,29
2018-09-08T04:56:35.806Z,33
2018-09-08T04:57:51.723Z,36
2018-09-08T04:59:07.646Z,39
2018-09-08T05:00:23.577Z,43
2018-09-08T05:01:39.545Z,46
2018-09-08T05:02:55.646Z,50
2018-09-08T05:04:11.586Z,54
2018-09-08T05:05:45.567Z,62
2018-09-08T05:07:01.616Z,67
2018-09-08T05:08:17.605Z,73
2018-09-08T05:09:33.622Z,80
2018-09-08T05:10:49.620Z,87
2018-09-08T05:12:05.697Z,96
2018-09-08T05:13:21.718Z,104
2018-09-08T05:14:37.645Z,114
2018-09-08T05:15:53.650Z,123
2018-09-08T05:17:09.804Z,132
2018-09-08T05:18:25.913Z,142
2018-09-08T05:19:59.749Z,154
2018-09-08T05:21:15.854Z,164
2018-09-08T05:22:31.846Z,179
2018-09-08T05:23:47.860Z,190
2018-09-08T05:25:03.834Z,202
2018-09-08T05:26:19.771Z,210
2018-09-08T05:27:35.770Z,215
2018-09-08T05:28:51.769Z,225
2018-09-08T05:30:07.791Z,235
2018-09-08T05:31:23.887Z,243
2018-09-08T05:34:13.854Z,268
2018-09-08T05:35:29.826Z,271
2018-09-08T05:36:45.927Z,274
2018-09-08T05:38:02.025Z,278
2018-09-08T05:39:18.101Z,285
2018-09-08T05:40:34.217Z,294
2018-09-08T05:41:51.416Z,302
2018-09-08T05:43:25.310Z,314
2018-09-08T05:44:41.397Z,323
2018-09-08T05:45:57.371Z,334
2018-09-08T05:47:13.319Z,350
2018-09-08T05:48:29.406Z,365
2018-09-08T05:49:45.432Z,381
2018-09-08T05:51:01.434Z,392
2018-09-08T05:52:17.399Z,398
2018-09-08T05:53:33.454Z,418
2018-09-08T05:54:49.510Z,435
2018-09-08T05:56:05.422Z,447
2018-09-08T05:57:21.443Z,455
2018-09-08T05:58:37.412Z,463
2018-09-08T06:01:34.053Z,488
2018-09-08T06:02:50.125Z,505
2018-09-08T06:04:06.070Z,521
2018-09-08T06:05:38.911Z,546
2018-09-08T06:06:54.854Z,538
2018-09-08T06:08:10.881Z,538
2018-09-08T06:09:26.927Z,542
2018-09-08T06:10:42.872Z,541
2018-09-08T06:12:16.721Z,542
2018-09-08T06:13:32.682Z,539
2018-09-08T06:14:48.562Z,549
2018-09-08T06:16:04.613Z,558
2018-09-08T06:17:20.595Z,558
2018-09-08T06:18:36.724Z,564
2018-09-08T06:19:52.720Z,570
2018-09-08T06:21:08.717Z,587
2018-09-08T06:22:24.624Z,585
2018-09-08T06:23:58.536Z,571
2018-09-08T06:25:14.596Z,576
2018-09-08T06:26:48.400Z,592
2018-09-08T06:28:04.401Z,625
2018-09-08T06:29:20.450Z,655
2018-09-08T06:30:36.361Z,684
2018-09-08T06:31:52.337Z,720
2018-09-08T06:33:08.320Z,761
2018-09-08T06:34:24.306Z,795
2018-09-08T06:35:40.254Z,835
2018-09-08T06:36:56.292Z,826
2018-09-08T06:38:12.334Z,830
2018-09-08T06:39:28.337Z,852
2018-09-08T06:40:44.253Z,860
2018-09-08T06:42:19.173Z,895
2018-09-08T06:43:35.187Z,904
2018-09-08T06:44:51.327Z,880
2018-09-08T06:46:07.212Z,845
2018-09-08T06:47:41.089Z,797
2018-09-08T06:48:57.074Z,758
2018-09-08T06:50:13.137Z,748
2018-09-08T06:51:29.146Z,708
2018-09-08T06:52:45.192Z,717
2018-09-08T06:54:01.137Z,772
2018-09-08T06:55:17.100Z,781
2018-09-08T06:56:50.954Z,873
2018-09-08T06:58:07.043Z,838
2018-09-08T06:59:23.021Z,812
2018-09-08T07:00:39.020Z,846
2018-09-08T07:02:13.880Z,888
2018-09-08T07:03:29.881Z,955
2018-09-08T07:04:45.878Z,1014
2018-09-08T07:06:01.965Z,1004
2018-09-08T07:07:17.942Z,1019
2018-09-08T07:08:34.954Z,1043
2018-09-08T07:09:50.912Z,1061
2018-09-08T07:11:06.849Z,1090
2018-09-08T07:12:22.766Z,1107
2018-09-08T07:13:38.739Z,1145
2018-09-08T07:14:54.817Z,1181
2018-09-08T07:16:10.968Z,1223
2018-09-08T07:17:26.943Z,1215
2018-09-08T07:19:01.879Z,1197
2018-09-08T07:20:17.858Z,1203
2018-09-08T07:23:07.702Z,1261
2018-09-08T07:25:57.630Z,1308
2018-09-08T07:27:31.514Z,1339
2018-09-08T07:28:47.572Z,1369
2018-09-08T07:30:21.446Z,1403
2018-09-08T07:31:37.501Z,1360
2018-09-08T07:32:53.443Z,1337
2018-09-08T07:34:09.410Z,1459
2018-09-08T07:35:25.439Z,1502
2018-09-08T07:36:41.618Z,1544
2018-09-08T07:38:15.459Z,1609
2018-09-08T07:39:31.467Z,1655
2018-09-08T07:40:47.380Z,1751
2018-09-08T07:42:03.611Z,1809
2018-09-08T07:43:19.562Z,1922
2018-09-08T07:44:35.512Z,2015
2018-09-08T07:45:51.486Z,2090
2018-09-08T07:47:07.539Z,2141
2018-09-08T07:48:23.540Z,2216
2018-09-08T07:49:39.532Z,2152
2018-09-08T07:51:13.380Z,2158
2018-09-08T07:52:29.333Z,2100
2018-09-08T07:54:04.291Z,2249
2018-09-08T07:56:54.061Z,2045
2018-09-08T07:58:10.205Z,2120
2018-09-08T07:59:26.267Z,2038
2018-09-08T08:00:42.252Z,2001
2018-09-08T08:01:58.168Z,2376
2018-09-08T08:03:14.285Z,2602
2018-09-08T08:04:30.208Z,2543
2018-09-08T08:05:46.272Z,2425
2018-09-08T08:07:21.066Z,2294
2018-09-08T08:08:37.152Z,2545
2018-09-08T08:09:53.075Z,2457
2018-09-08T08:11:09.094Z,2538
2018-09-08T08:12:25.096Z,2219
2018-09-08T08:13:59.999Z,2119
2018-09-08T08:15:16.026Z,2311
2018-09-08T08:16:50.056Z,2723
2018-09-08T08:18:06.238Z,2435
2018-09-08T08:19:22.253Z,2684
2018-09-08T08:20:38.446Z,2649
2018-09-08T08:21:54.468Z,2657
2018-09-08T08:23:10.528Z,2563
2018-09-08T08:24:27.429Z,2451
2018-09-08T08:26:01.296Z,2399
2018-09-08T08:27:17.235Z,2347
2018-09-08T08:28:52.142Z,2400
2018-09-08T08:30:08.128Z,2444
2018-09-08T08:31:24.020Z,2398
2018-09-08T08:32:40.035Z,2344
2018-09-08T08:33:56.111Z,2299
2018-09-08T08:35:12.089Z,2273
2018-09-08T08:36:46.921Z,2274
2018-09-08T08:38:02.952Z,2270
2018-09-08T08:39:36.965Z,2246
2018-09-08T08:40:53.071Z,2243
2018-09-08T08:42:09.055Z,2274
2018-09-08T08:43:25.185Z,2301
2018-09-08T08:44:41.078Z,2325
2018-09-08T08:45:57.077Z,2352
2018-09-08T08:47:13.061Z,2366
2018-09-08T08:48:29.038Z,2397
2018-09-08T08:50:20.993Z,2423
2018-09-08T08:51:36.966Z,2399
2018-09-08T08:52:52.979Z,2393
2018-09-08T08:54:09.059Z,2384
2018-09-08T08:55:42.998Z,2351
2018-09-08T08:56:59.028Z,2335
2018-09-08T08:58:15.283Z,2337
2018-09-08T08:59:31.614Z,2361
2018-09-08T09:00:47.664Z,2379
2018-09-08T09:02:03.872Z,2373
2018-09-08T09:03:19.934Z,2398
2018-09-08T09:04:36.067Z,2385
2018-09-08T09:05:52.094Z,2405
2018-09-08T09:07:08.100Z,2421
2018-09-08T09:08:24.557Z,2384
2018-09-08T09:09:59.325Z,2365
2018-09-08T09:11:15.383Z,2353
2018-09-08T09:12:49.491Z,2368
2018-09-08T09:14:05.435Z,2362
2018-09-08T09:15:22.643Z,2242
2018-09-08T09:16:38.392Z,2418
2018-09-08T09:17:54.502Z,2073
2018-09-08T09:19:10.633Z,2462
2018-09-08T09:20:26.630Z,2479
2018-09-08T09:22:00.539Z,2450
2018-09-08T09:23:34.614Z,2395
2018-09-08T09:24:51.073Z,2463
2018-09-08T09:26:06.736Z,2321
2018-09-08T09:27:22.857Z,2508
2018-09-08T09:30:12.885Z,2608
2018-09-08T09:31:28.915Z,1815
2018-09-08T09:33:02.807Z,1721
2018-09-08T09:34:18.804Z,1686
2018-09-08T09:37:08.851Z,2531
2018-09-08T09:38:24.856Z,2780
2018-09-08T09:39:58.770Z,2763
2018-09-08T09:41:14.842Z,2785
2018-09-08T09:42:48.747Z,2964
2018-09-08T09:44:04.766Z,2827
2018-09-08T09:45:39.733Z,2828
2018-09-08T09:46:55.710Z,2814
2018-09-08T09:48:11.641Z,2785
2018-09-08T09:49:28.798Z,2697
2018-09-08T09:50:44.901Z,2760
2018-09-08T09:53:34.949Z,2892
2018-09-08T09:54:51.014Z,2882
2018-09-08T09:57:59.020Z,2906
2018-09-08T09:59:33.946Z,2943
2018-09-08T10:00:50.135Z,2901
2018-09-08T10:02:06.169Z,2899
2018-09-08T10:03:22.279Z,2899
2018-09-08T10:04:38.396Z,2899
2018-09-08T10:05:54.452Z,2855
2018-09-08T10:07:10.557Z,2887
2018-09-08T10:08:26.693Z,2875
2018-09-08T10:09:42.741Z,2855
2018-09-08T10:10:58.985Z,2883
2018-09-08T10:12:15.117Z,2850
2018-09-08T10:13:31.161Z,2854
2018-09-08T10:14:47.160Z,2858
2018-09-08T10:16:21.260Z,2834
2018-09-08T10:17:37.248Z,2862
2018-09-08T10:18:53.244Z,2890
2018-09-08T10:20:09.279Z,2841
2018-09-08T10:21:25.473Z,2883
2018-09-08T10:22:41.498Z,2926
2018-09-08T10:24:05.160Z,2967
2018-09-08T10:25:13.696Z,2936
2018-09-08T10:26:29.895Z,2945
2018-09-08T10:29:19.877Z,2738
2018-09-08T10:30:53.937Z,2877
2018-09-08T10:32:10.423Z,2881
2018-09-08T10:33:44.094Z,2908
2018-09-08T10:35:18.048Z,2934
2018-09-08T10:36:51.981Z,2975
2018-09-08T10:38:08.115Z,2964
2018-09-08T10:39:24.169Z,2949
2018-09-08T10:40:40.301Z,2826
2018-09-08T10:41:56.442Z,2794
2018-09-08T10:43:12.461Z,2823
2018-09-08T10:44:28.590Z,2959
2018-09-08T10:46:02.519Z,2985
2018-09-08T10:47:18.690Z,3023
2018-09-08T10:50:15.619Z,2965
2018-09-08T10:51:49.545Z,2927
2018-09-08T10:53:05.648Z,2980
2018-09-08T10:54:39.529Z,2964
2018-09-08T10:55:55.616Z,2876
2018-09-08T10:57:11.733Z,2933
2018-09-08T10:58:27.915Z,2957
2018-09-08T10:59:43.939Z,2960
2018-09-08T11:01:18.798Z,2960
2018-09-08T11:02:53.196Z,2943
2018-09-08T11:04:09.115Z,2955
2018-09-08T11:05:25.175Z,2921
2018-09-08T11:06:41.275Z,2911
2018-09-08T11:07:57.499Z,2815
2018-09-08T11:09:31.417Z,2807
2018-09-08T11:10:47.557Z,2793
2018-09-08T11:13:45.190Z,2664
2018-09-08T11:15:01.262Z,2706
2018-09-08T11:16:17.417Z,2772
2018-09-08T11:17:33.632Z,2806
2018-09-08T11:18:49.848Z,2863
2018-09-08T11:20:05.845Z,2823
2018-09-08T11:21:39.794Z,2782
2018-09-08T11:22:55.986Z,2762
2018-09-08T11:42:12.458Z,2715
2018-09-08T11:43:28.533Z,2691
2018-09-08T11:44:44.576Z,2695
2018-09-08T11:46:18.623Z,2691
2018-09-08T11:47:52.581Z,2694
2018-09-08T11:49:26.516Z,2657
2018-09-08T11:50:42.633Z,2672
2018-09-08T11:52:16.522Z,2673
2018-09-08T11:53:32.575Z,2693
2018-09-08T11:54:48.637Z,2654
2018-09-08T11:56:04.610Z,2631
2018-09-08T11:57:20.580Z,2623
2018-09-08T11:58:54.504Z,2596
2018-09-08T12:00:10.604Z,2590
2018-09-08T12:01:26.669Z,2588
2018-09-08T12:02:42.676Z,2576
2018-09-08T12:04:17.595Z,2560
2018-09-08T12:05:33.607Z,2534
2018-09-08T12:06:49.702Z,2543
2018-09-08T12:08:05.949Z,2535
2018-09-08T12:09:21.983Z,2505
2018-09-08T12:10:38.015Z,2514
2018-09-08T12:11:54.037Z,2510
2018-09-08T12:13:28.978Z,2512
2018-09-08T12:14:44.965Z,2476
2018-09-08T12:16:18.954Z,2468
2018-09-08T12:17:53.866Z,2481
2018-09-08T12:19:10.914Z,2490
2018-09-08T12:20:26.907Z,2474
2018-09-08T12:21:43.015Z,2479
2018-09-08T12:22:59.078Z,2493
2018-09-08T12:24:15.145Z,2495
2018-09-08T12:25:31.126Z,2495
2018-09-08T12:27:05.271Z,2500
2018-09-08T12:28:39.247Z,2506
2018-09-08T12:29:55.442Z,2524
2018-09-08T12:31:11.592Z,2522
2018-09-08T12:32:27.563Z,2508
2018-09-08T12:33:43.599Z,2492
2018-09-08T12:34:59.720Z,2501
2018-09-08T12:36:15.884Z,2499
2018-09-08T12:37:49.816Z,2496
2018-09-08T12:39:05.893Z,2494
2018-09-08T12:40:21.937Z,2489
2018-09-08T12:41:37.973Z,2277
2018-09-08T12:43:12.850Z,2497
2018-09-08T12:44:46.834Z,2470
2018-09-08T12:46:02.813Z,2580
2018-09-08T12:47:18.891Z,2584
2018-09-08T12:48:34.864Z,2591
2018-09-08T12:50:08.761Z,2625
2018-09-08T12:51:42.698Z,2600
2018-09-08T12:52:58.788Z,2622
2018-09-08T12:54:32.666Z,2649
2018-09-08T12:55:48.679Z,2625
2018-09-08T12:57:04.761Z,2580
2018-09-08T12:58:20.724Z,2578
2018-09-08T12:59:36.800Z,2541
2018-09-08T13:00:52.867Z,2424
2018-09-08T13:02:09.010Z,2515
2018-09-08T13:03:25.109Z,2492
2018-09-08T13:04:41.243Z,2577
2018-09-08T13:05:57.227Z,2522
2018-09-08T13:07:13.268Z,2680
2018-09-08T13:08:29.299Z,2437
2018-09-08T13:09:45.419Z,2179
2018-09-08T13:11:01.543Z,2452
2018-09-08T13:12:17.805Z,2500
2018-09-08T13:13:33.816Z,2536
2018-09-08T13:14:49.806Z,2643
2018-09-08T13:16:05.889Z,2708
2018-09-08T13:17:39.781Z,2650
2018-09-08T13:18:55.820Z,2530
2018-09-08T13:20:11.863Z,2624
2018-09-08T13:21:27.897Z,2622
2018-09-08T13:22:43.896Z,2635
2018-09-08T13:23:59.955Z,2638
2018-09-08T13:25:15.860Z,2498
2018-09-08T13:26:49.799Z,2672
2018-09-08T13:28:05.909Z,2658
2018-09-08T13:29:39.790Z,2658
2018-09-08T13:30:55.697Z,2635
2018-09-08T13:32:11.677Z,2644
2018-09-08T13:33:27.682Z,2634
2018-09-08T13:34:43.667Z,2639
2018-09-08T13:36:17.553Z,2647
2018-09-08T13:37:33.637Z,2632
2018-09-08T13:38:49.677Z,2633
2018-09-08T13:40:24.602Z,2628
2018-09-08T13:41:40.825Z,2635
2018-09-08T13:42:56.778Z,2625
2018-09-08T13:44:30.879Z,2598
2018-09-08T13:45:46.917Z,2598
2018-09-08T13:47:03.126Z,2598
2018-09-08T13:48:37.008Z,2597
2018-09-08T13:49:54.049Z,2593
2018-09-08T13:51:10.197Z,2594
2018-09-08T13:52:44.083Z,2580
2018-09-08T13:54:18.003Z,2574
2018-09-08T13:55:33.955Z,2590
2018-09-08T13:56:50.078Z,2578
2018-09-08T13:58:06.152Z,2573
2018-09-08T13:59:40.112Z,2570
2018-09-08T14:00:56.161Z,2557
2018-09-08T14:02:30.203Z,2546
2018-09-08T14:03:46.314Z,2522
2018-09-08T14:05:02.389Z,2544
2018-09-08T14:06:18.352Z,2542
2018-09-08T14:07:52.230Z,2535
2018-09-08T14:09:08.377Z,2533
2018-09-08T14:10:24.527Z,2515
2018-09-08T14:11:58.398Z,2521
2018-09-08T14:13:14.367Z,2530
2018-09-08T14:14:30.467Z,2532
2018-09-08T14:16:04.371Z,2524
2018-09-08T14:17:20.357Z,2517
2018-09-08T14:18:36.352Z,2517
2018-09-08T14:19:52.375Z,2498
2018-09-08T14:21:27.283Z,2457
2018-09-08T14:22:43.264Z,2493
2018-09-08T14:23:59.231Z,2479
2018-09-08T14:25:33.291Z,2476
2018-09-08T14:26:49.316Z,2473
2018-09-08T14:28:05.331Z,2482
2018-09-08T14:29:21.325Z,2478
2018-09-08T14:30:37.388Z,2484
2018-09-08T14:31:53.453Z,2479
2018-09-08T14:33:09.449Z,2486
2018-09-08T14:34:25.472Z,2487
2018-09-08T14:35:41.613Z,2482
2018-09-08T14:37:15.483Z,2499
2018-09-08T14:38:31.537Z,2509
2018-09-08T14:39:47.717Z,2515
2018-09-08T14:41:03.751Z,2500
2018-09-08T14:42:19.783Z,2494
2018-09-08T14:43:35.785Z,2506
2018-09-08T14:44:51.844Z,2514
2018-09-08T14:46:07.821Z,2525
2018-09-08T14:47:24.050Z,2528
2018-09-08T14:48:40.051Z,2550
2018-09-08T14:49:56.090Z,2651
2018-09-08T14:51:12.095Z,3174
2018-09-08T14:52:28.104Z,6012
2018-09-08T14:53:44.133Z,13390
2018-09-08T14:55:00.148Z,8882
2018-09-08T14:56:16.125Z,2989
2018-09-08T14:57:32.070Z,2757
2018-09-08T14:58:48.066Z,2739
2018-09-08T15:00:04.050Z,2739
2018-09-08T15:01:20.032Z,2947
2018-09-08T15:02:36.131Z,3087
2018-09-08T15:03:52.179Z,2798
2018-09-08T15:05:08.347Z,3806
2018-09-08T15:06:24.237Z,4177
2018-09-08T15:07:40.222Z,3141
2018-09-08T15:08:56.188Z,10455
2018-09-08T15:10:12.268Z,5448
2018-09-08T15:11:28.337Z,2909
2018-09-08T15:13:02.209Z,2758
2018-09-08T15:14:18.287Z,2833
2018-09-08T15:15:34.409Z,18432
2018-09-08T15:16:50.409Z,41776
2018-09-08T15:18:06.397Z,19752
2018-09-08T15:19:22.400Z,3487
2018-09-08T15:20:38.533Z,2860
2018-09-08T15:22:12.401Z,2632
2018-09-08T15:23:28.521Z,2632
2018-09-08T15:24:44.545Z,2607
2018-09-08T15:26:00.513Z,2601
2018-09-08T15:27:16.649Z,2590
2018-09-08T15:28:32.724Z,2592
2018-09-08T15:29:48.851Z,2554
2018-09-08T15:31:04.907Z,2572
2018-09-08T15:32:20.886Z,2560
2018-09-08T15:33:36.870Z,2547
2018-09-08T15:34:52.972Z,2524
2018-09-08T15:36:09.202Z,2538
2018-09-08T15:37:25.220Z,2514
2018-09-08T15:38:41.269Z,2519
2018-09-08T15:39:57.296Z,2533
2018-09-08T15:41:13.435Z,2537
2018-09-08T15:42:29.466Z,6877
2018-09-08T15:43:45.468Z,48680
2018-09-08T15:45:20.414Z,16240
2018-09-08T15:46:36.449Z,2241
2018-09-08T15:47:52.505Z,2121
2018-09-08T15:49:08.515Z,2074
2018-09-08T15:50:24.530Z,2037
2018-09-08T15:51:40.673Z,2006
2018-09-08T15:53:14.531Z,1975
2018-09-08T15:54:48.383Z,1946
2018-09-08T15:56:04.408Z,1931
2018-09-08T15:57:20.543Z,1901
2018-09-08T15:58:36.678Z,1865
2018-09-08T15:59:52.567Z,1872
2018-09-08T16:01:08.640Z,1847
2018-09-08T16:02:24.582Z,1833
2018-09-08T16:03:40.556Z,1803
2018-09-08T16:04:56.580Z,1797
2018-09-08T16:06:12.655Z,1760
2018-09-08T16:07:28.683Z,1679
2018-09-08T16:08:44.693Z,1501
2018-09-08T16:10:00.686Z,1462
2018-09-08T16:11:16.764Z,1685
2018-09-08T16:12:32.988Z,1690
2018-09-08T16:13:49.040Z,1662
2018-09-08T16:15:23.900Z,1474
2018-09-08T16:16:57.770Z,1385
2018-09-08T16:18:13.940Z,1528
2018-09-08T16:19:29.986Z,1555
2018-09-08T16:22:19.816Z,1496
2018-09-08T16:23:35.876Z,1472
2018-09-08T16:24:51.869Z,1460
2018-09-08T16:27:59.673Z,1394
2018-09-08T16:29:33.571Z,1370
2018-09-08T16:31:08.457Z,1332
2018-09-08T16:32:24.576Z,1317
2018-09-08T16:33:40.679Z,1302
2018-09-08T16:34:56.656Z,1283
2018-09-08T16:37:53.589Z,1240
2018-09-08T16:39:09.609Z,1224
2018-09-08T16:40:25.611Z,1206
2018-09-08T16:41:59.482Z,1188
2018-09-08T17:06:15.265Z,742
2018-09-08T17:07:31.441Z,675
2018-09-08T17:08:47.445Z,655
2018-09-08T17:10:03.481Z,678
2018-09-08T17:11:38.363Z,689
2018-09-08T17:12:54.304Z,707
2018-09-08T17:14:10.298Z,685
2018-09-08T17:15:26.290Z,1730
2018-09-08T17:16:42.331Z,3391
2018-09-08T17:17:58.523Z,4714
2018-09-08T17:19:14.613Z,3299
2018-09-08T17:20:30.681Z,2839
2018-09-08T17:22:04.597Z,1588
2018-09-08T17:23:38.519Z,1309
2018-09-08T17:24:54.469Z,383
2018-09-08T17:26:10.575Z,309
2018-09-08T17:27:26.558Z,266
2018-09-08T17:28:42.686Z,191
2018-09-08T17:29:58.881Z,200
2018-09-08T17:31:15.425Z,171
2018-09-08T17:32:31.392Z,147
2018-09-08T17:34:05.509Z,126
2018-09-08T17:35:21.482Z,110
2018-09-08T17:36:37.681Z,94
2018-09-08T17:37:53.712Z,84
2018-09-08T17:39:09.774Z,76
2018-09-08T17:40:25.821Z,68
2018-09-08T17:41:41.833Z,62
2018-09-08T17:42:58.845Z,56
2018-09-08T17:44:14.868Z,50
2018-09-08T17:45:31.092Z,45
2018-09-08T17:46:47.117Z,41
2018-09-08T17:48:03.104Z,35
2018-09-08T17:49:37.192Z,30
2018-09-08T17:50:53.334Z,26
2018-09-08T17:52:09.422Z,22
2018-09-08T17:53:25.537Z,19
2018-09-08T17:55:00.518Z,15
2018-09-08T17:56:16.725Z,13
2018-09-08T17:57:32.987Z,12
2018-09-08T17:58:50.447Z,9
2018-09-08T18:00:24.394Z,7
2018-09-08T18:01:40.438Z,5
2018-09-08T18:02:56.530Z,5
2018-09-08T18:04:12.607Z,4
2018-09-08T18:05:28.714Z,3
2018-09-08T18:06:44.866Z,3
2018-09-08T18:08:01.049Z,2
2018-09-08T18:09:17.318Z,2
2018-09-08T18:10:33.871Z,1
2018-09-08T18:11:50.172Z,1
2018-09-08T18:13:24.969Z,1
2018-09-08T18:14:40.960Z,1
2018-09-08T18:16:14.863Z,0
2018-09-08T18:17:48.835Z,1
2018-09-08T18:19:04.851Z,1
2018-09-08T18:20:20.930Z,1
2018-09-08T18:21:54.876Z,0
2018-09-08T18:23:11.115Z,0
2018-09-08T18:24:44.947Z,0
2018-09-08T18:26:20.102Z,1
2018-09-08T18:27:36.241Z,1
2018-09-08T18:29:10.290Z,0
2018-09-08T18:30:26.439Z,1
2018-09-08T18:31:42.465Z,1
2018-09-08T18:32:58.554Z,1
2018-09-08T18:34:14.556Z,1
2018-09-08T18:35:30.540Z,1
2018-09-08T18:36:46.563Z,1
2018-09-08T18:38:20.553Z,1
2018-09-08T18:39:36.610Z,1
2018-09-08T18:40:52.642Z,1
2018-09-08T18:42:08.671Z,1
2018-09-08T18:43:24.827Z,1
2018-09-08T18:44:40.875Z,1
2018-09-08T18:46:14.782Z,1
2018-09-08T18:47:30.940Z,1
2018-09-08T18:48:47.035Z,0
2018-09-08T18:50:03.019Z,0
2018-09-08T18:51:19.069Z,1
2018-09-08T18:52:53.367Z,0
2018-09-08T18:54:27.364Z,0
2018-09-08T18:56:02.300Z,0
2018-09-08T18:57:18.333Z,0
2018-09-08T18:58:34.539Z,0
2018-09-08T18:59:50.669Z,1
2018-09-08T19:01:06.807Z,0
2018-09-08T19:02:40.697Z,0
2018-09-08T19:03:56.735Z,0
2018-09-08T19:05:30.770Z,0
2018-09-08T19:06:46.856Z,0
2018-09-08T19:08:02.847Z,0
2018-09-08T19:09:18.933Z,0
2018-09-08T19:10:34.998Z,0
2018-09-08T19:11:51.149Z,0
2018-09-08T19:13:07.348Z,0
2018-09-08T19:14:23.510Z,0
2018-09-08T19:15:39.626Z,0
2018-09-08T19:16:55.672Z,0
2018-09-08T19:18:11.773Z,0
2018-09-08T19:19:46.048Z,0
2018-09-08T19:21:19.989Z,0
2018-09-08T19:22:54.588Z,0